J.e. O'donnell — WDC2694 — position and weather

sailwx.info

Track history (hours):
 
Tides and Currents Weather Stations Pressure Air Temp Water Temp Dewpoint Dewpoint Depression Visibility Wind Speed Wind Dir Waves Ship Positions

J.e. O'donnell

Owner: Kirby Inland Marine LP, Houston, TX. More information available from US FCC via Universal Licensing System and Coast Guard Vessel Documentation Center.

Last reported at 2017-Dec-11 04:11 UTC. Time now 2017-Dec-11 21:17 UTC.
Position N 28°09' W 096°54'.

Length 22 m; draft 3 m.

Type: . MMSI: 366996490.

Date/timePositionNaut miles runAvg speedWind from/ knotsBaromVisibWave heightAir tempDewpointWater temp
2017-Dec-11 04:11N 28°09' W 096°54'0 0.7
2017-Dec-11 03:57N 28°09' W 096°54'134 2.6
2017-Dec-09 00:51N 29°32' W 094°54'2 5.1
2017-Dec-09 00:30N 29°34' W 094°55'3 5.2
2017-Dec-09 00:00N 29°36' W 094°57'3 5.2
2017-Dec-08 23:28N 29°38' W 094°58'3 5.8
2017-Dec-08 22:59N 29°41' W 094°59'2 4.9
2017-Dec-08 22:30N 29°42' W 095°01'5 0.3
2017-Dec-08 07:00N 29°46' W 095°05'3 5.5
2017-Dec-08 06:30N 29°44' W 095°03'2 4.4
2017-Dec-08 05:59N 29°42' W 095°01'2 0.1
2017-Dec-07 07:17N 29°43' W 095°03'1 4.9
2017-Dec-07 07:00N 29°42' W 095°02'4 1.2
2017-Dec-07 03:22N 29°45' W 095°06'2 5.1
2017-Dec-07 02:58N 29°44' W 095°07'3 5.1
2017-Dec-07 02:25N 29°45' W 095°11'2 4.2
2017-Dec-07 01:55N 29°44' W 095°13'1 1.1
2017-Dec-07 01:09N 29°44' W 095°14'0 0.3
2017-Dec-07 00:59N 29°44' W 095°14'0 0.0
2017-Dec-07 00:19N 29°44' W 095°14'0 0.2
2017-Dec-06 23:57N 29°44' W 095°14'2 3.7
2017-Dec-06 23:27N 29°45' W 095°12'2 3.7
2017-Dec-06 22:52N 29°44' W 095°09'  
2017-Dec-04 07:32N 29°44' W 095°03'0 6.9
2017-Dec-04 07:30N 29°44' W 095°03'2 1.1
2017-Dec-04 05:21N 29°45' W 095°06'1 0.1
2017-Dec-03 21:23N 29°46' W 095°05'2 5.2
2017-Dec-03 21:00N 29°44' W 095°03'2 4.6
2017-Dec-03 20:30N 29°43' W 095°01'2 5.1
2017-Dec-03 20:00N 29°41' W 094°59'3 5.4
2017-Dec-03 19:30N 29°39' W 094°58'3 5.4
2017-Dec-03 19:00N 29°36' W 094°57'3 5.5
2017-Dec-03 18:30N 29°34' W 094°55'3 5.4
2017-Dec-03 18:00N 29°32' W 094°53'20 1.4
2017-Dec-03 04:09N 29°13' W 095°02'1 4.7
2017-Dec-03 03:57N 29°12' W 095°03'9 4.5
2017-Dec-03 01:59N 29°07' W 095°11'61 2.1
2017-Dec-01 21:17N 28°36' W 096°10'2 5.4
2017-Dec-01 20:59N 28°35' W 096°11'3 5.3
2017-Dec-01 20:30N 28°33' W 096°13'7 5.2
2017-Dec-01 19:10N 28°29' W 096°20'1 5.2
2017-Dec-01 18:58N 28°29' W 096°21'2 5.1
2017-Dec-01 18:29N 28°27' W 096°23'3 5.2
2017-Dec-01 17:59N 28°26' W 096°26'3 5.4
2017-Dec-01 17:25N 28°25' W 096°29'1 2.9
2017-Dec-01 16:55N 28°24' W 096°30'5 4.4
2017-Dec-01 15:41N 28°21' W 096°36'1 5.2
2017-Dec-01 15:28N 28°21' W 096°37'3 5.2
2017-Dec-01 14:59N 28°19' W 096°39'4 5.0
2017-Dec-01 14:06N 28°17' W 096°43'0 5.0
2017-Dec-01 14:00N 28°16' W 096°44'3 5.0
2017-Dec-01 13:19N 28°14' W 096°47'7 3.2
2017-Dec-01 11:08N 28°10' W 096°53'0 1.1
2017-Dec-01 10:56N 28°10' W 096°53'0 0.0
2017-Dec-01 10:26N 28°10' W 096°53'0 1.0
2017-Dec-01 09:59N 28°09' W 096°53'2 4.8
2017-Dec-01 09:30N 28°08' W 096°55'2 4.7
2017-Dec-01 08:59N 28°06' W 096°57'1 1.4
2017-Dec-01 08:30N 28°05' W 096°57'2 4.8
2017-Dec-01 08:00N 28°03' W 096°59'3 5.1
2017-Dec-01 07:28N 28°01' W 097°01'2 5.1
2017-Dec-01 07:00N 27°59' W 097°02'2 4.8
2017-Dec-01 06:29N 27°57' W 097°04'2 5.2
2017-Dec-01 06:00N 27°55' W 097°03'3 5.3
2017-Dec-01 05:30N 27°52' W 097°03'2 4.7
2017-Dec-01 05:00N 27°50' W 097°05'3 5.4
2017-Dec-01 04:30N 27°50' W 097°08'  
Track history (hours):
 
Tides and Currents Weather Stations Pressure Air Temp Water Temp Dewpoint Dewpoint Depression Visibility Wind Speed Wind Dir Waves Ship Positions

J.e. O'donnell

Owner: Kirby Inland Marine LP, Houston, TX. More information available from US FCC via Universal Licensing System and Coast Guard Vessel Documentation Center.

Last reported at 2017-Dec-11 04:11 UTC. Time now 2017-Dec-11 21:17 UTC.
Position N 28°09' W 096°54'.

Length 22 m; draft 3 m.

Type: . MMSI: 366996490.

Date/timePositionNaut miles runAvg speedWind from/ knotsBaromVisibWave heightAir tempDewpointWater temp
2017-Dec-11 04:11N 28°09' W 096°54'0 0.7
2017-Dec-11 03:57N 28°09' W 096°54'134 2.6
2017-Dec-09 00:51N 29°32' W 094°54'2 5.1
2017-Dec-09 00:30N 29°34' W 094°55'3 5.2
2017-Dec-09 00:00N 29°36' W 094°57'3 5.2
2017-Dec-08 23:28N 29°38' W 094°58'3 5.8
2017-Dec-08 22:59N 29°41' W 094°59'2 4.9
2017-Dec-08 22:30N 29°42' W 095°01'5 0.3
2017-Dec-08 07:00N 29°46' W 095°05'3 5.5
2017-Dec-08 06:30N 29°44' W 095°03'2 4.4
2017-Dec-08 05:59N 29°42' W 095°01'2 0.1
2017-Dec-07 07:17N 29°43' W 095°03'1 4.9
2017-Dec-07 07:00N 29°42' W 095°02'4 1.2
2017-Dec-07 03:22N 29°45' W 095°06'2 5.1
2017-Dec-07 02:58N 29°44' W 095°07'3 5.1
2017-Dec-07 02:25N 29°45' W 095°11'2 4.2
2017-Dec-07 01:55N 29°44' W 095°13'1 1.1
2017-Dec-07 01:09N 29°44' W 095°14'0 0.3
2017-Dec-07 00:59N 29°44' W 095°14'0 0.0
2017-Dec-07 00:19N 29°44' W 095°14'0 0.2
2017-Dec-06 23:57N 29°44' W 095°14'2 3.7
2017-Dec-06 23:27N 29°45' W 095°12'2 3.7
2017-Dec-06 22:52N 29°44' W 095°09'  
2017-Dec-04 07:32N 29°44' W 095°03'0 6.9
2017-Dec-04 07:30N 29°44' W 095°03'2 1.1
2017-Dec-04 05:21N 29°45' W 095°06'1 0.1
2017-Dec-03 21:23N 29°46' W 095°05'2 5.2
2017-Dec-03 21:00N 29°44' W 095°03'2 4.6
2017-Dec-03 20:30N 29°43' W 095°01'2 5.1
2017-Dec-03 20:00N 29°41' W 094°59'3 5.4
2017-Dec-03 19:30N 29°39' W 094°58'3 5.4
2017-Dec-03 19:00N 29°36' W 094°57'3 5.5
2017-Dec-03 18:30N 29°34' W 094°55'3 5.4
2017-Dec-03 18:00N 29°32' W 094°53'20 1.4
2017-Dec-03 04:09N 29°13' W 095°02'1 4.7
2017-Dec-03 03:57N 29°12' W 095°03'9 4.5
2017-Dec-03 01:59N 29°07' W 095°11'61 2.1
2017-Dec-01 21:17N 28°36' W 096°10'2 5.4
2017-Dec-01 20:59N 28°35' W 096°11'3 5.3
2017-Dec-01 20:30N 28°33' W 096°13'7 5.2
2017-Dec-01 19:10N 28°29' W 096°20'1 5.2
2017-Dec-01 18:58N 28°29' W 096°21'2 5.1
2017-Dec-01 18:29N 28°27' W 096°23'3 5.2
2017-Dec-01 17:59N 28°26' W 096°26'3 5.4
2017-Dec-01 17:25N 28°25' W 096°29'1 2.9
2017-Dec-01 16:55N 28°24' W 096°30'5 4.4
2017-Dec-01 15:41N 28°21' W 096°36'1 5.2
2017-Dec-01 15:28N 28°21' W 096°37'3 5.2
2017-Dec-01 14:59N 28°19' W 096°39'4 5.0
2017-Dec-01 14:06N 28°17' W 096°43'0 5.0
2017-Dec-01 14:00N 28°16' W 096°44'3 5.0
2017-Dec-01 13:19N 28°14' W 096°47'7 3.2
2017-Dec-01 11:08N 28°10' W 096°53'0 1.1
2017-Dec-01 10:56N 28°10' W 096°53'0 0.0
2017-Dec-01 10:26N 28°10' W 096°53'0 1.0
2017-Dec-01 09:59N 28°09' W 096°53'2 4.8
2017-Dec-01 09:30N 28°08' W 096°55'2 4.7
2017-Dec-01 08:59N 28°06' W 096°57'1 1.4
2017-Dec-01 08:30N 28°05' W 096°57'2 4.8
2017-Dec-01 08:00N 28°03' W 096°59'3 5.1
2017-Dec-01 07:28N 28°01' W 097°01'2 5.1
2017-Dec-01 07:00N 27°59' W 097°02'2 4.8
2017-Dec-01 06:29N 27°57' W 097°04'2 5.2
2017-Dec-01 06:00N 27°55' W 097°03'3 5.3
2017-Dec-01 05:30N 27°52' W 097°03'2 4.7
2017-Dec-01 05:00N 27°50' W 097°05'3 5.4
2017-Dec-01 04:30N 27°50' W 097°08'  

Dump ship's entire track history